createdAt,value
2018-07-08T00:01:03.884Z,21.77
2018-07-08T00:03:35.611Z,22.93
2018-07-08T00:06:07.706Z,24.53
2018-07-08T00:08:39.487Z,24.93
2018-07-08T00:11:11.567Z,23.83
2018-07-08T00:13:43.403Z,20.67
2018-07-08T00:16:15.617Z,23.47
2018-07-08T00:18:47.346Z,23.30
2018-07-08T00:21:19.922Z,23.03
2018-07-08T00:23:52.162Z,22.37
2018-07-08T00:26:24.154Z,21.50
2018-07-08T00:28:56.467Z,23.10
2018-07-08T00:31:28.911Z,22.50
2018-07-08T00:34:00.919Z,23.83
2018-07-08T00:36:33.006Z,23.13
2018-07-08T00:39:05.564Z,25.03
2018-07-08T00:41:38.166Z,25.60
2018-07-08T00:44:09.866Z,23.27
2018-07-08T00:46:42.124Z,22.80
2018-07-08T00:49:13.957Z,22.70
2018-07-08T00:51:45.954Z,26.37
2018-07-08T00:54:17.864Z,22.97
2018-07-08T00:56:50.006Z,24.73
2018-07-08T00:59:21.791Z,21.90
2018-07-08T01:01:54.034Z,24.27
2018-07-08T01:04:26.115Z,23.17
2018-07-08T01:06:58.114Z,24.30
2018-07-08T01:09:30.046Z,22.87
2018-07-08T01:12:02.151Z,24.57
2018-07-08T01:14:33.789Z,24.30
2018-07-08T01:17:05.978Z,24.60
2018-07-08T01:19:37.926Z,22.10
2018-07-08T01:22:10.038Z,24.50
2018-07-08T01:24:41.845Z,23.20
2018-07-08T01:27:13.897Z,21.90
2018-07-08T01:29:45.918Z,22.10
2018-07-08T01:32:18.074Z,23.67
2018-07-08T01:34:50.089Z,22.40
2018-07-08T01:37:22.886Z,25.50
2018-07-08T01:39:54.757Z,23.70
2018-07-08T01:42:26.682Z,24.50
2018-07-08T01:44:58.815Z,24.50
2018-07-08T01:47:30.831Z,23.37
2018-07-08T01:50:02.790Z,22.87
2018-07-08T01:52:35.032Z,25.03
2018-07-08T01:55:07.004Z,25.67
2018-07-08T01:57:40.308Z,22.97
2018-07-08T02:00:12.009Z,25.13
2018-07-08T02:02:44.366Z,24.60
2018-07-08T02:05:16.106Z,23.93
2018-07-08T02:07:48.300Z,25.83
2018-07-08T02:10:20.073Z,23.90
2018-07-08T02:12:52.462Z,23.80
2018-07-08T02:15:24.835Z,22.43
2018-07-08T02:17:56.731Z,24.40
2018-07-08T02:20:28.443Z,25.00
2018-07-08T02:23:00.824Z,24.40
2018-07-08T02:25:32.674Z,24.50
2018-07-08T02:28:05.243Z,23.77
2018-07-08T02:30:37.972Z,23.17
2018-07-08T02:33:10.999Z,24.30
2018-07-08T02:35:42.967Z,23.03
2018-07-08T02:38:15.524Z,23.80
2018-07-08T02:40:47.412Z,24.13
2018-07-08T02:43:19.396Z,22.70
2018-07-08T02:45:52.528Z,22.90
2018-07-08T02:48:26.498Z,23.20
2018-07-08T02:50:58.635Z,20.60
2018-07-08T02:53:30.861Z,20.50
2018-07-08T02:56:02.663Z,19.30
2018-07-08T02:58:34.685Z,18.10
2018-07-08T03:01:06.330Z,18.07
2018-07-08T03:03:38.210Z,20.47
2018-07-08T03:06:10.038Z,17.70
2018-07-08T03:08:42.125Z,19.27
2018-07-08T03:11:14.016Z,19.27
2018-07-08T03:13:46.667Z,18.53
2018-07-08T03:16:18.626Z,18.60
2018-07-08T03:18:51.185Z,17.43
2018-07-08T03:21:22.955Z,16.73
2018-07-08T03:23:54.831Z,17.77
2018-07-08T03:26:26.855Z,16.37
2018-07-08T03:28:59.899Z,18.23
2018-07-08T03:31:31.786Z,17.90
2018-07-08T03:34:03.535Z,17.47
2018-07-08T03:36:35.341Z,17.87
2018-07-08T03:39:12.569Z,18.00
2018-07-08T03:41:44.739Z,19.63
2018-07-08T03:44:16.557Z,17.47
2018-07-08T03:46:51.439Z,17.90
2018-07-08T03:49:23.953Z,17.47
2018-07-08T03:51:55.885Z,16.33
2018-07-08T03:54:29.826Z,18.27
2018-07-08T03:57:01.695Z,19.10
2018-07-08T03:59:34.811Z,20.37
2018-07-08T04:02:06.938Z,21.80
2018-07-08T04:04:39.301Z,23.57
2018-07-08T04:07:10.449Z,23.10
2018-07-08T04:09:43.314Z,23.07
2018-07-08T04:12:15.639Z,23.07
2018-07-08T04:14:47.686Z,24.50
2018-07-08T04:17:19.846Z,26.37
2018-07-08T04:19:51.380Z,27.90
2018-07-08T04:22:23.460Z,29.70
2018-07-08T04:24:55.826Z,31.90
2018-07-08T04:27:27.726Z,33.20
2018-07-08T04:30:00.253Z,37.90
2018-07-08T04:32:32.403Z,38.37
2018-07-08T04:35:04.794Z,35.50
2018-07-08T04:37:36.838Z,39.00
2018-07-08T04:40:09.031Z,39.17
2018-07-08T04:42:40.931Z,39.60
2018-07-08T04:45:13.103Z,45.83
2018-07-08T04:47:45.010Z,44.67
2018-07-08T04:50:17.178Z,44.33
2018-07-08T04:52:49.155Z,41.37
2018-07-08T04:55:21.632Z,40.40
2018-07-08T04:57:53.593Z,36.20
2018-07-08T05:00:27.350Z,37.07
2018-07-08T05:02:59.380Z,30.83
2018-07-08T05:05:31.982Z,32.50
2018-07-08T05:08:04.030Z,25.47
2018-07-08T05:10:36.103Z,24.37
2018-07-08T05:13:07.182Z,21.73
2018-07-08T05:15:39.262Z,22.58
2018-07-08T05:18:11.071Z,22.67
2018-07-08T05:20:43.223Z,20.43
2018-07-08T05:23:15.022Z,19.42
2018-07-08T05:25:47.284Z,19.65
2018-07-08T05:28:19.503Z,20.23
2018-07-08T05:30:51.864Z,19.02
2018-07-08T05:33:23.709Z,18.62
2018-07-08T05:35:56.102Z,20.00
2018-07-08T05:38:27.863Z,17.90
2018-07-08T05:41:00.271Z,21.97
2018-07-08T05:43:32.480Z,17.85
2018-07-08T05:46:04.798Z,18.27
2018-07-08T05:48:36.588Z,17.85
2018-07-08T05:51:08.919Z,19.80
2018-07-08T05:53:40.533Z,18.87
2018-07-08T05:56:12.356Z,19.00
2018-07-08T05:58:44.288Z,18.87
2018-07-08T06:01:17.054Z,19.32
2018-07-08T06:03:48.677Z,19.60
2018-07-08T06:06:19.941Z,19.50
2018-07-08T06:08:51.873Z,18.52
2018-07-08T06:11:23.710Z,18.25
2018-07-08T06:13:55.625Z,18.20
2018-07-08T06:16:27.783Z,17.17
2018-07-08T06:18:59.814Z,18.30
2018-07-08T06:21:31.907Z,18.42
2018-07-08T06:24:03.769Z,18.32
2018-07-08T06:26:36.027Z,17.65
2018-07-08T06:29:07.942Z,20.12
2018-07-08T06:31:40.346Z,19.42
2018-07-08T06:34:11.198Z,18.65
2018-07-08T06:36:43.363Z,18.45
2018-07-08T06:39:15.240Z,19.77
2018-07-08T06:41:47.383Z,19.65
2018-07-08T06:44:19.391Z,16.52
2018-07-08T06:46:51.984Z,18.62
2018-07-08T06:49:23.630Z,18.12
2018-07-08T06:51:56.273Z,20.02
2018-07-08T06:54:28.202Z,20.50
2018-07-08T06:57:00.308Z,20.17
2018-07-08T06:59:32.081Z,17.55
2018-07-08T07:02:05.791Z,18.75
2018-07-08T07:04:37.910Z,18.23
2018-07-08T07:07:09.923Z,19.55
2018-07-08T07:09:41.743Z,21.15
2018-07-08T07:12:13.902Z,20.52
2018-07-08T07:14:50.338Z,20.82
2018-07-08T07:17:22.951Z,19.73
2018-07-08T07:19:54.973Z,21.75
2018-07-08T07:22:26.065Z,21.27
2018-07-08T07:24:57.740Z,20.05
2018-07-08T07:27:29.703Z,19.90
2018-07-08T07:30:01.572Z,21.40
2018-07-08T07:32:34.142Z,21.68
2018-07-08T07:35:05.994Z,21.57
2018-07-08T07:37:38.196Z,21.27
2018-07-08T07:40:10.378Z,20.55
2018-07-08T07:42:42.692Z,21.37
2018-07-08T07:45:14.748Z,20.65
2018-07-08T07:47:45.852Z,20.97
2018-07-08T07:50:17.642Z,19.37
2018-07-08T07:52:49.514Z,20.62
2018-07-08T07:55:21.375Z,21.55
2018-07-08T07:57:53.492Z,20.30
2018-07-08T08:00:25.287Z,21.37
2018-07-08T08:02:59.151Z,22.35
2018-07-08T08:05:31.209Z,20.23
2018-07-08T08:08:03.401Z,19.15
2018-07-08T08:10:35.191Z,17.17
2018-07-08T08:13:08.157Z,19.73
2018-07-08T08:15:40.433Z,16.85
2018-07-08T08:18:12.410Z,18.77
2018-07-08T08:20:43.870Z,17.90
2018-07-08T08:23:15.891Z,18.35
2018-07-08T08:25:46.862Z,15.98
2018-07-08T08:28:18.795Z,16.80
2018-07-08T08:30:52.314Z,16.62
2018-07-08T08:33:27.543Z,15.88
2018-07-08T08:35:59.511Z,17.95
2018-07-08T08:38:31.866Z,16.70
2018-07-08T08:41:03.546Z,15.32
2018-07-08T08:43:36.078Z,14.83
2018-07-08T08:46:07.947Z,15.72
2018-07-08T08:48:39.910Z,15.10
2018-07-08T08:51:11.951Z,14.47
2018-07-08T08:53:44.056Z,14.83
2018-07-08T08:56:16.086Z,14.20
2018-07-08T08:58:48.171Z,15.18
2018-07-08T09:01:20.696Z,14.83
2018-07-08T09:03:53.984Z,14.68
2018-07-08T09:06:25.926Z,15.48
2018-07-08T09:08:58.114Z,14.38
2018-07-08T09:11:30.024Z,15.70
2018-07-08T09:14:01.322Z,13.95
2018-07-08T09:16:33.112Z,15.90
2018-07-08T09:19:05.188Z,13.50
2018-07-08T09:21:37.032Z,15.05
2018-07-08T09:24:09.165Z,14.25
2018-07-08T09:26:41.010Z,14.13
2018-07-08T09:29:13.135Z,14.60
2018-07-08T09:31:45.111Z,15.88
2018-07-08T09:34:17.231Z,15.68
2018-07-08T09:36:49.126Z,13.90
2018-07-08T09:39:21.087Z,15.63
2018-07-08T09:41:52.906Z,14.93
2018-07-08T09:44:24.807Z,14.63
2018-07-08T09:46:56.526Z,15.93
2018-07-08T09:49:28.616Z,15.15
2018-07-08T09:52:00.526Z,14.93
2018-07-08T09:54:32.754Z,16.15
2018-07-08T09:57:04.618Z,15.13
2018-07-08T09:59:35.627Z,15.32
2018-07-08T10:02:07.406Z,15.20
2018-07-08T10:04:41.070Z,17.02
2018-07-08T10:07:13.010Z,16.67
2018-07-08T10:09:45.092Z,17.20
2018-07-08T10:12:17.038Z,16.80
2018-07-08T10:14:49.148Z,16.05
2018-07-08T10:17:21.497Z,16.87
2018-07-08T10:19:53.924Z,16.33
2018-07-08T10:22:30.171Z,17.80
2018-07-08T10:25:02.513Z,16.07
2018-07-08T10:27:53.518Z,16.50
2018-07-08T10:30:25.793Z,17.05
2018-07-08T10:32:57.908Z,17.70
2018-07-08T10:35:39.668Z,18.07
2018-07-08T10:38:12.354Z,18.10
2018-07-08T10:40:44.906Z,19.00
2018-07-08T10:43:17.395Z,19.80
2018-07-08T10:45:48.814Z,18.32
2018-07-08T10:48:20.586Z,20.00
2018-07-08T10:50:51.858Z,20.60
2018-07-08T10:53:24.408Z,21.67
2018-07-08T10:55:56.639Z,20.43
2018-07-08T10:58:28.337Z,20.40
2018-07-08T11:01:01.756Z,18.20
2018-07-08T11:03:34.435Z,20.07
2018-07-08T11:06:08.264Z,19.60
2018-07-08T11:08:40.208Z,20.07
2018-07-08T11:11:12.374Z,20.13
2018-07-08T11:13:44.157Z,20.93
2018-07-08T11:16:16.031Z,19.43
2018-07-08T11:18:48.142Z,20.93
2018-07-08T11:21:20.293Z,19.77
2018-07-08T11:23:54.201Z,20.03
2018-07-08T11:26:28.212Z,20.37
2018-07-08T11:29:00.723Z,20.57
2018-07-08T11:31:32.935Z,20.50
2018-07-08T11:34:05.038Z,19.73
2018-07-08T11:36:37.214Z,19.70
2018-07-08T11:39:09.515Z,23.50
2018-07-08T11:41:42.150Z,19.73
2018-07-08T11:44:19.618Z,23.27
2018-07-08T11:46:52.321Z,22.60
2018-07-08T11:49:28.303Z,22.50
2018-07-08T11:52:00.447Z,23.40
2018-07-08T11:54:32.476Z,24.87
2018-07-08T11:57:04.675Z,24.10
2018-07-08T11:59:36.593Z,24.07
2018-07-08T12:02:08.932Z,24.27
2018-07-08T12:04:44.886Z,27.00
2018-07-08T12:07:18.450Z,25.53
2018-07-08T12:09:56.848Z,24.90
2018-07-08T12:12:32.056Z,23.10
2018-07-08T12:15:04.662Z,24.63
2018-07-08T12:17:36.918Z,22.67
2018-07-08T12:20:08.861Z,24.40
2018-07-08T12:22:41.162Z,23.90
2018-07-08T12:25:13.046Z,23.17
2018-07-08T12:27:45.355Z,21.20
2018-07-08T12:30:17.518Z,23.30
2018-07-08T12:32:49.708Z,21.67
2018-07-08T12:35:22.390Z,21.30
2018-07-08T12:37:54.292Z,24.40
2018-07-08T12:40:26.335Z,23.70
2018-07-08T12:42:59.046Z,22.67
2018-07-08T12:45:30.847Z,25.73
2018-07-08T12:48:02.996Z,24.13
2018-07-08T12:50:34.766Z,25.83
2018-07-08T12:53:08.100Z,23.73
2018-07-08T12:55:39.993Z,24.30
2018-07-08T12:58:12.168Z,25.23
2018-07-08T13:00:48.539Z,24.67
2018-07-08T13:03:24.845Z,24.73
2018-07-08T13:05:57.755Z,23.67
2018-07-08T13:08:37.793Z,24.47
2018-07-08T13:11:10.510Z,26.87
2018-07-08T13:13:43.279Z,28.53
2018-07-08T13:16:15.190Z,27.50
2018-07-08T13:18:47.241Z,30.47
2018-07-08T13:21:19.150Z,26.77
2018-07-08T13:23:51.435Z,26.47
2018-07-08T13:26:23.320Z,27.13
2018-07-08T13:28:55.572Z,27.33
2018-07-08T13:31:27.326Z,28.00
2018-07-08T13:33:59.767Z,24.90
2018-07-08T13:36:31.792Z,25.33
2018-07-08T13:39:05.718Z,24.60
2018-07-08T13:41:37.772Z,25.87
2018-07-08T13:44:10.113Z,24.67
2018-07-08T13:46:41.863Z,25.30
2018-07-08T13:49:13.784Z,24.57
2018-07-08T13:51:45.763Z,23.73
2018-07-08T13:54:17.894Z,24.27
2018-07-08T13:56:49.974Z,22.50
2018-07-08T13:59:22.352Z,25.90
2018-07-08T14:01:54.542Z,24.90
2018-07-08T14:04:28.447Z,23.07
2018-07-08T14:07:00.304Z,23.87
2018-07-08T14:09:33.737Z,24.53
2018-07-08T14:12:05.629Z,23.07
2018-07-08T14:14:38.036Z,24.63
2018-07-08T14:17:09.964Z,26.20
2018-07-08T14:19:42.579Z,25.70
2018-07-08T14:22:14.507Z,25.47
2018-07-08T14:24:46.817Z,25.17
2018-07-08T14:27:17.764Z,27.60
2018-07-08T14:29:49.879Z,23.70
2018-07-08T14:32:20.702Z,25.40
2018-07-08T14:34:53.037Z,26.07
2018-07-08T14:37:24.914Z,26.60
2018-07-08T14:39:56.928Z,25.80
2018-07-08T14:42:28.677Z,26.67
2018-07-08T14:45:00.631Z,25.00
2018-07-08T14:47:32.667Z,24.40
2018-07-08T14:50:08.253Z,26.10
2018-07-08T14:52:55.044Z,26.23
2018-07-08T14:55:32.986Z,25.67
2018-07-08T14:58:08.009Z,26.43
2018-07-08T15:00:42.514Z,24.50
2018-07-08T15:03:14.767Z,25.13
2018-07-08T15:05:46.815Z,26.80
2018-07-08T15:08:23.598Z,25.87
2018-07-08T15:10:57.186Z,25.20
2018-07-08T15:13:29.114Z,25.83
2018-07-08T15:16:01.315Z,25.43
2018-07-08T15:18:33.351Z,25.00
2018-07-08T15:21:05.494Z,26.77
2018-07-08T15:23:37.307Z,23.90
2018-07-08T15:26:09.430Z,24.63
2018-07-08T15:28:41.331Z,24.90
2018-07-08T15:31:13.994Z,24.97
2018-07-08T15:33:45.802Z,25.37
2018-07-08T15:36:18.090Z,25.97
2018-07-08T15:38:50.311Z,26.40
2018-07-08T15:41:25.434Z,25.87
2018-07-08T15:43:57.306Z,25.87
2018-07-08T15:46:29.627Z,26.30
2018-07-08T15:49:02.969Z,27.40
2018-07-08T15:51:35.023Z,25.93
2018-07-08T15:54:07.527Z,26.10
2018-07-08T15:56:40.314Z,27.70
2018-07-08T15:59:12.162Z,27.07
2018-07-08T16:01:44.478Z,28.63
2018-07-08T16:04:16.282Z,27.43
2018-07-08T16:06:48.255Z,26.17
2018-07-08T16:09:20.148Z,28.17
2018-07-08T16:11:53.259Z,28.30
2018-07-08T16:14:25.271Z,28.57
2018-07-08T16:16:57.407Z,27.80
2018-07-08T16:19:29.227Z,26.90
2018-07-08T16:22:01.191Z,27.97
2018-07-08T16:24:33.333Z,28.10
2018-07-08T16:27:05.272Z,27.87
2018-07-08T16:29:37.119Z,28.77
2018-07-08T16:32:08.049Z,29.47
2018-07-08T16:34:39.098Z,28.17
2018-07-08T16:37:10.798Z,29.03
2018-07-08T16:39:41.874Z,27.80
2018-07-08T16:42:14.223Z,26.50
2018-07-08T16:44:46.186Z,27.50
2018-07-08T16:47:18.303Z,30.87
2018-07-08T16:49:49.306Z,28.00
2018-07-08T16:52:21.486Z,27.50
2018-07-08T16:54:53.175Z,26.77
2018-07-08T16:57:25.480Z,29.90
2018-07-08T16:59:57.601Z,30.17
2018-07-08T17:02:29.533Z,27.50
2018-07-08T17:05:02.450Z,28.20
2018-07-08T17:07:33.866Z,27.93
2018-07-08T17:10:05.760Z,29.30
2018-07-08T17:12:39.273Z,27.97
2018-07-08T17:15:11.303Z,26.80
2018-07-08T17:17:43.894Z,28.37
2018-07-08T17:20:15.800Z,30.47
2018-07-08T17:22:48.019Z,30.50
2018-07-08T17:25:20.316Z,29.60
2018-07-08T17:27:53.153Z,31.20
2018-07-08T17:30:25.039Z,27.67
2018-07-08T17:32:57.088Z,31.23
2018-07-08T17:35:29.297Z,31.83
2018-07-08T17:38:01.198Z,32.70
2018-07-08T17:40:32.982Z,34.20
2018-07-08T17:43:05.939Z,32.67
2018-07-08T17:45:37.666Z,33.30
2018-07-08T17:48:10.172Z,34.00
2018-07-08T17:50:42.140Z,34.73
2018-07-08T17:53:14.214Z,36.20
2018-07-08T17:55:56.714Z,35.80
2018-07-08T17:58:28.717Z,35.60
2018-07-08T18:01:00.399Z,37.83
2018-07-08T18:03:32.307Z,33.77
2018-07-08T18:06:04.275Z,38.20
2018-07-08T18:08:37.032Z,36.00
2018-07-08T18:11:07.687Z,40.83
2018-07-08T18:13:41.003Z,37.83
2018-07-08T18:16:12.803Z,38.60
2018-07-08T18:18:44.986Z,37.13
2018-07-08T18:21:16.143Z,36.60
2018-07-08T18:23:48.190Z,35.87
2018-07-08T18:26:19.910Z,37.17
2018-07-08T18:28:51.953Z,35.60
2018-07-08T18:31:23.056Z,35.30
2018-07-08T18:33:54.946Z,34.17
2018-07-08T18:36:27.321Z,32.33
2018-07-08T18:38:59.487Z,34.07
2018-07-08T18:41:30.501Z,36.53
2018-07-08T18:44:02.554Z,34.40
2018-07-08T18:46:34.656Z,37.40
2018-07-08T18:49:06.821Z,33.87
2018-07-08T18:51:39.035Z,34.70
2018-07-08T18:54:11.368Z,35.07
2018-07-08T18:56:44.060Z,36.53
2018-07-08T18:59:16.840Z,35.00
2018-07-08T19:01:48.702Z,36.50
2018-07-08T19:04:20.671Z,35.67
2018-07-08T19:06:52.643Z,32.57
2018-07-08T19:09:24.815Z,33.03
2018-07-08T19:11:56.674Z,33.77
2018-07-08T19:14:29.986Z,33.80
2018-07-08T19:17:01.767Z,34.30
2018-07-08T19:19:33.683Z,37.57
2018-07-08T19:22:05.354Z,32.87
2018-07-08T19:24:38.899Z,34.83
2018-07-08T19:27:12.899Z,34.87
2018-07-08T19:29:45.004Z,35.17
2018-07-08T19:32:16.858Z,37.70
2018-07-08T19:34:47.853Z,34.77
2018-07-08T19:37:19.729Z,33.53
2018-07-08T19:39:51.645Z,32.77
2018-07-08T19:42:23.517Z,33.93
2018-07-08T19:44:55.272Z,32.57
2018-07-08T19:47:27.195Z,30.60
2018-07-08T19:49:59.702Z,30.17
2018-07-08T19:52:30.764Z,30.90
2018-07-08T19:55:03.030Z,33.40
2018-07-08T19:57:34.915Z,31.70
2018-07-08T20:00:07.445Z,31.80
2018-07-08T20:02:39.450Z,31.10
2018-07-08T20:05:11.404Z,30.57
2018-07-08T20:07:43.335Z,31.23
2018-07-08T20:10:15.449Z,32.40
2018-07-08T20:12:47.367Z,32.60
2018-07-08T20:15:20.751Z,30.90
2018-07-08T20:17:52.930Z,31.37
2018-07-08T20:20:25.616Z,31.70
2018-07-08T20:22:57.265Z,29.63
2018-07-08T20:25:29.382Z,29.37
2018-07-08T20:28:01.272Z,31.07
2018-07-08T20:30:33.581Z,32.67
2018-07-08T20:33:05.544Z,32.60
2018-07-08T20:35:37.964Z,33.97
2018-07-08T20:38:09.839Z,36.17
2018-07-08T20:40:42.019Z,33.80
2018-07-08T20:43:13.907Z,34.73
2018-07-08T20:45:46.173Z,34.70
2018-07-08T20:48:16.878Z,36.90
2018-07-08T20:50:49.124Z,35.10
2018-07-08T20:53:19.830Z,35.33
2018-07-08T20:55:51.917Z,37.17
2018-07-08T20:58:23.590Z,36.10
2018-07-08T21:00:55.542Z,33.87
2018-07-08T21:03:27.730Z,38.23
2018-07-08T21:05:59.791Z,36.50
2018-07-08T21:08:31.970Z,36.17
2018-07-08T21:11:04.394Z,36.23
2018-07-08T21:13:36.288Z,35.67
2018-07-08T21:16:08.917Z,36.60
2018-07-08T21:18:40.810Z,35.80
2018-07-08T21:21:12.761Z,33.50
2018-07-08T21:23:44.544Z,35.80
2018-07-08T21:26:16.895Z,35.33
2018-07-08T21:28:48.936Z,37.27
2018-07-08T21:31:21.251Z,36.70
2018-07-08T21:33:53.204Z,35.03
2018-07-08T21:36:25.534Z,36.00
2018-07-08T21:38:57.280Z,35.30
2018-07-08T21:41:29.635Z,35.90
2018-07-08T21:44:01.510Z,36.17
2018-07-08T21:46:33.812Z,36.77
2018-07-08T21:49:05.735Z,35.80
2018-07-08T21:51:37.859Z,33.00
2018-07-08T21:54:08.723Z,36.00
2018-07-08T21:56:41.019Z,33.60
2018-07-08T21:59:12.714Z,31.53
2018-07-08T22:02:03.358Z,33.30
2018-07-08T22:04:35.130Z,31.67
2018-07-08T22:07:11.943Z,33.00
2018-07-08T22:09:43.822Z,31.50
2018-07-08T22:12:15.876Z,33.67
2018-07-08T22:14:47.928Z,33.80
2018-07-08T22:17:21.015Z,33.23
2018-07-08T22:19:52.620Z,34.43
2018-07-08T22:22:23.386Z,33.90
2018-07-08T22:24:55.442Z,31.77
2018-07-08T22:27:26.653Z,31.67
2018-07-08T22:29:58.818Z,33.57
2018-07-08T22:32:31.258Z,33.00
2018-07-08T22:35:02.162Z,32.30
2018-07-08T22:37:34.279Z,33.43
2018-07-08T22:40:06.266Z,33.40
2018-07-08T22:42:38.466Z,32.90
2018-07-08T22:45:10.837Z,31.57
2018-07-08T22:47:42.931Z,30.03
2018-07-08T22:50:14.635Z,32.90
2018-07-08T22:52:46.554Z,32.17
2018-07-08T22:55:18.266Z,32.53
2018-07-08T22:57:50.886Z,32.50
2018-07-08T23:00:32.515Z,33.77
2018-07-08T23:03:16.726Z,32.93
2018-07-08T23:05:48.382Z,34.53
2018-07-08T23:08:20.495Z,34.67
2018-07-08T23:10:52.407Z,32.83
2018-07-08T23:13:24.482Z,33.97
2018-07-08T23:15:56.368Z,35.63
2018-07-08T23:18:29.233Z,33.07
2018-07-08T23:21:01.027Z,32.70
2018-07-08T23:23:33.083Z,31.73
2018-07-08T23:26:04.843Z,33.13
2018-07-08T23:28:37.771Z,32.93
2018-07-08T23:31:10.227Z,32.57
2018-07-08T23:33:42.130Z,32.47
2018-07-08T23:36:14.064Z,31.53
2018-07-08T23:38:46.147Z,32.20
2018-07-08T23:41:17.744Z,32.53
2018-07-08T23:43:49.692Z,30.80
2018-07-08T23:46:21.676Z,32.47
2018-07-08T23:48:53.679Z,30.43
2018-07-08T23:51:25.666Z,31.67
2018-07-08T23:53:58.342Z,29.77
2018-07-08T23:56:29.095Z,31.30
2018-07-08T23:59:02.067Z,31.30
